Terminal Aerodrome Forecast
Issued by NWS Wichita, KS

Home | Current Version | Previous Version | Graphics & Text | Print | Product List | Glossary On
Versions: 1 2 3 4 5 6 7 8 9 10 11 12 13 14 15 16 17 18 19 20 21 22 23 24 25 26 27 28
452
FTUS43 KICT 181136
TAFICT
TAF
KICT 181136Z 1812/1912 VRB03KT P6SM BKN200
     FM181400 17008KT P6SM -RA VCSH BKN080 OVC150
     FM181700 19013KT P6SM SCT100
     FM190200 16006KT P6SM BKN040
     FM190400 16008KT 6SM BR OVC015
     FM190600 16007KT 5SM BR BKN008
     FM190900 16006KT 4SM BR OVC003=

USA.gov is the U.S. government's official web portal to all federal, state and local government web resources and services.